Relevés horaires Chievres (Belgique)


Relevés horaires à Chievres - Mardi 02 Juin 2020
Heure UTC1 Température [°C] Vent [km/h] Hum. [%] Pres.4 [hPa] Visi. [Km] Nébu. [octa] Préc.5 [mm] Cond.
2m. Res. Ros. Dir.2 Vit. Moy. Raf.3
23:00 14.3 14.3 9.0 NNO 1.9 -- 1.9 70 1012.2(-1.1/3h) 20 -- -- --
22:00 16.8 16.8 8.7 NNO 1.9 -- 5.6 59 1012.7(-0.7/3h) 20 -- -- --
21:00 17.2 17.2 8.7 N 3.7 -- 13.0 57 1013.2(-0.6/3h) 20 -- -- --
20:00 19.2 19.2 8.3 N 5.6 -- 11.1 49 1013.2(-0.6/3h) 20 -- -- --
19:00 21.8 21.8 8.2 NNO 7.4 -- 13.0 42 1013.5(-0.7/3h) 20 -- -- --
18:00 24.0 24.0 8.7 NNO 11.1 -- 20.4 38 1013.6(-0.9/3h) 20 -- -- --
17:00 24.8 24.8 8.7 NNO 11.1 -- 20.4 36 1013.8(-1.2/3h) 20 -- -- --
16:00 26.3 26.3 9.3 NNO 11.1 -- 16.7 34 1014.1(-1.6/3h) 20 -- -- --
15:00 27.0 27.0 7.8 ONO 5.6 -- 11.1 30 1014.5(-1.7/3h) 20 -- -- --
14:00 26.5 26.5 7.6 O 5.6 -- 11.1 30 1015.1(-1.7/3h) 19 -- -- --
13:00 27.2 27.2 7.7 NNO 1.9 -- 7.4 29 1015.7(-1.7/3h) 19 -- -- --
12:00 26.2 26.2 8.4 NE 3.7 -- 9.3 32 1016.2(-1.5/3h) 20 -- -- --
11:00 25.4 25.4 7.6 NNO 1.9 -- 9.3 32 1016.8(-1.3/3h) 17 -- -- --
10:00 24.5 24.5 7.3 N 5.6 -- 9.3 33 1017.6(-0.8/3h) 20 -- -- --
09:00 23.7 23.7 7.1 N 5.6 -- 9.3 34 1017.8(-0.6/3h) 20 -- -- --
08:00 22.9 22.9 8.7 NNO 1.9 -- 5.6 40 1018.2(-0.3/3h) 20 -- -- --
07:00 19.7 19.7 9.5 NNO 1.9 -- 5.6 52 1018.6(-0.1/3h) 20 -- -- --
06:00 16.2 16.2 8.3 NNO 1.9 -- 3.7 59 1018.7(0.0/3h) 20 -- -- --
05:00 14.0 14.0 6.9 NNO 1.9 -- 1.9 62 1018.8(0.0/3h) 20 -- -- --
04:00 11.2 11.2 6.9 NNO 1.9 -- 1.9 75 1018.8(-0.3/3h) 20 -- -- --
03:00 12.0 12.0 6.7 NNO 1.9 -- 3.7 70 1018.7(-0.8/3h) 20 -- -- --
02:00 14.0 14.0 6.4 NNO 1.9 -- 1.9 60 1018.8(-0.8/3h) 20 -- -- --
01:00 13.4 13.4 6.5 NNO 1.9 -- 3.7 63 1019.2(-0.4/3h) 20 -- -- --
00:00 15.5 15.5 7.4 NNO 1.9 -- 11.1 58 1019.6(0.1/3h) 20 -- -- --

1 Coordinated Universal Time. Actuellement il est 04:00 locale et 02:00 UTC.

2 Le vent souffle depuis la direction indiquée vers la direction oposée.

3 Les rafales max. sont disponible 40 min après l'heure du relevé.

4 Pour les stations d'altitude (plus de 600m) le géopotentiel du niveau le plus proche de la pression obligatoire est indiqué.

5 Les stations disposant d'un diffuseur peuvent indiquer "trace". Cela signifie que des précipitations ont touchés le sol mais que la quantité est inférieure à 0.1 mm.

Récapitulatif de la journée
Température [°C] Vent [km/h] Ensoleillement4 [h] Precipitations totale5 [mm] Pression [Hpa]
Min1 Max.2 Moy.3 Max. Min Max.
10.8 28.1 0 20.4 0 h 0 min 0 1012.2 1019.6

1 Température minimale relevée entre 18:00 UTC la veille et 18:00 UTC le jour donné.

2 Température maximale relevée entre 06:00 UTC le jour donné et 06:00 UTC le lendemain.

3 Vent moyen de la journée basé sur les relevés horaires.

4 Ensoleillement en heures relevé entre 06:00 UTC la veille et 06:00 UTC le jour donné.

5 Précipitations totales tombées entre 06:00 UTC la jour donné et 06:00 UTC le lendemain.

Graphiques horaires